Latest Weather Observations for Warruwi

IDD60801

Issued at 6:35 pm CST Tuesday 16 September 2014 (issued every 30 minutes, with the page automatically refreshed every 10 minutes)

About weather observations | Map of weather stations | Latest weather observations for NT | Other Formats
Station Details ID: 014401 Name: WARRUWI AIRPORT Lat: -11.65 Lon: 133.38 Height: 19.2 m
Data from the previous 72 hours. | See also: Recent months at Warruwi
Date/Time
CST
Temp
°C
App
Temp
°C
Dew
Point
Rel
Hum
%
Delta-T
°C
Wind Press
QNH
hPa
Press
MSL
hPa
Rain
since 9 am
mm
Dir
 
Spd
km/h
Gust
km/h
Spd
kts
Gust
kts
16/06:30pm 26.1 28.3 20.4 71 3.7 ENE 9 19 5 10 1011.6 1011.4 0.0
16/06:00pm 26.6 28.2 20.0 67 4.3 ENE 11 20 6 11 1011.3 1011.1 0.0
16/05:30pm 27.3 29.1 19.6 62 5.0 NE 9 19 5 10 1011.1 1010.9 0.0
16/05:00pm 28.1 29.3 19.1 58 5.8 NE 11 20 6 11 1011.1 1010.9 0.0
16/04:30pm 28.4 29.2 19.1 57 6.0 NE 13 26 7 14 1011.3 1011.1 0.0
16/04:00pm 29.1 29.5 19.1 54 6.5 NE 15 24 8 13 1011.1 1010.9 0.0
16/03:30pm 29.2 30.1 19.2 54 6.5 NE 13 26 7 14 1011.0 1010.8 0.0
16/03:00pm 29.2 30.4 19.8 57 6.2 NE 13 26 7 14 1011.3 1011.1 0.0
16/02:30pm 28.9 30.3 20.4 60 5.6 NE 13 22 7 12 1011.8 1011.6 0.0
16/02:00pm 28.6 29.1 20.1 60 5.6 E 17 26 9 14 1012.3 1012.1 0.0
16/01:30pm 28.8 28.5 19.1 55 6.3 E 19 24 10 13 1012.5 1012.3 0.0
16/01:00pm 28.5 28.9 18.9 56 6.2 E 15 20 8 11 1013.0 1012.8 0.0
16/12:30pm 28.8 29.7 18.3 53 6.7 E 11 19 6 10 1013.2 1013.0 0.0
16/12:00pm 28.6 29.4 19.0 56 6.2 E 13 19 7 10 1013.6 1013.4 0.0
16/11:30am 28.1 29.4 19.3 58 5.7 ESE 11 17 6 9 1013.9 1013.7 0.0
16/11:00am 28.2 29.8 20.7 63 5.0 ESE 13 20 7 11 1014.2 1014.0 0.0
16/10:30am 27.9 29.1 20.7 65 4.8 ESE 15 20 8 11 1014.4 1014.2 0.0
16/10:00am 27.9 30.1 21.9 70 4.0 ESE 13 19 7 10 1014.6 1014.4 0.0
16/09:30am 27.2 30.0 21.5 71 3.8 ESE 9 15 5 8 1014.6 1014.4 0.0
16/09:00am 26.8 30.1 21.8 74 3.3 E 7 15 4 8 1014.6 1014.4 0.0
16/08:30am 26.5 28.9 20.8 71 3.8 E 9 15 5 8 1014.4 1014.2 0.0
16/08:00am 26.3 29.1 21.5 75 3.2 E 9 13 5 7 1014.0 1013.8 0.0
16/07:30am 25.4 29.0 22.1 82 2.2 ENE 6 11 3 6 1013.6 1013.4 0.0
16/07:00am 23.9 28.1 21.8 88 1.4 NE 2 4 1 2 1013.1 1012.9 0.0
16/06:30am 24.0 27.8 21.7 87 1.5 NNE 4 6 2 3 1012.7 1012.5 0.0
16/06:00am 24.3 28.3 22.0 87 1.5 NE 4 7 2 4 1012.3 1012.1 0.0
16/05:30am 24.7 28.0 21.8 84 1.9 ENE 7 11 4 6 1011.9 1011.7 0.0
16/05:00am 24.8 28.1 21.9 84 1.9 E 7 11 4 6 1011.7 1011.5 0.0
16/04:30am 24.9 27.8 21.8 83 2.1 E 9 15 5 8 1011.6 1011.4 0.0
16/04:00am 25.1 27.7 22.0 83 2.1 E 11 17 6 9 1011.4 1011.2 0.0
16/03:30am 25.2 27.4 21.9 82 2.2 E 13 20 7 11 1011.5 1011.3 0.0
16/03:00am 25.0 28.3 21.9 83 2.1 ENE 7 11 4 6 1011.6 1011.4 0.0
16/02:30am 24.9 28.0 21.4 81 2.3 ENE 7 11 4 6 1011.8 1011.6 0.0
16/02:00am 25.0 28.2 21.3 80 2.4 NE 6 13 3 7 1012.1 1011.9 0.0
16/01:30am 25.1 28.1 21.2 79 2.6 ENE 7 13 4 7 1012.3 1012.1 0.0
16/01:00am 25.1 28.1 21.2 79 2.6 ENE 7 13 4 7 1012.5 1012.3 0.0
16/12:30am 25.1 28.2 21.4 80 2.4 ENE 7 13 4 7 1012.7 1012.5 0.0
16/12:00am 25.1 28.4 21.8 82 2.2 ENE 7 11 4 6 1012.8 1012.6 0.0
 
Date/Time
CST
Temp
°C
App
Temp
°C
Dew
Point
Rel
Hum
%
Delta-T
°C
Wind Press
QNH
hPa
Press
MSL
hPa
Rain
since 9 am
mm
Dir
 
Spd
km/h
Gust
km/h
Spd
kts
Gust
kts
15/11:30pm 25.2 28.1 21.7 81 2.3 ENE 9 15 5 8 1012.8 1012.6 0.0
15/11:00pm 25.2 28.1 21.7 81 2.3 ENE 9 15 5 8 1012.7 1012.5 0.0
15/10:30pm 25.3 28.2 21.8 81 2.3 ENE 9 15 5 8 1012.7 1012.5 0.0
15/10:00pm 25.3 28.6 21.8 81 2.3 ENE 7 15 4 8 1012.8 1012.6 0.0
15/09:30pm 25.4 27.9 21.7 80 2.5 ENE 11 17 6 9 1012.6 1012.4 0.0
15/09:00pm 25.4 28.3 21.7 80 2.5 ENE 9 19 5 10 1012.4 1012.2 0.0
15/08:30pm 25.6 28.0 21.5 78 2.7 ENE 11 19 6 10 1012.1 1011.9 0.0
15/08:00pm 25.6 28.4 21.5 78 2.7 NE 9 17 5 9 1011.8 1011.6 0.0
15/07:30pm 25.6 28.3 21.3 77 2.8 ENE 9 15 5 8 1011.5 1011.3 0.0
15/07:00pm 25.8 28.4 21.2 76 3.0 ENE 9 19 5 10 1011.2 1011.0 0.0
15/06:30pm 26.1 28.2 20.9 73 3.4 ENE 11 19 6 10 1010.9 1010.7 0.0
15/06:00pm 26.6 28.4 20.4 69 4.1 ENE 11 24 6 13 1010.5 1010.3 0.0
15/05:30pm 27.3 29.0 20.9 68 4.2 ENE 13 20 7 11 1010.6 1010.4 0.0
15/05:00pm 27.6 28.6 20.2 64 4.8 ENE 15 22 8 12 1010.7 1010.5 0.0
15/04:30pm 28.3 29.6 20.8 63 5.0 ENE 15 22 8 12 1010.8 1010.6 0.0
15/04:00pm 28.6 28.9 20.3 60 5.5 E 19 26 10 14 1010.8 1010.6 0.0
15/03:30pm 28.7 29.9 21.5 65 4.8 E 17 24 9 13 1011.0 1010.8 0.0
15/03:00pm 28.4 28.9 20.9 64 5.0 E 19 28 10 15 1011.1 1010.9 0.0
15/02:30pm 28.3 29.2 20.8 63 5.0 E 17 24 9 13 1011.6 1011.4 0.0
15/02:00pm 28.2 29.3 20.5 63 5.1 E 15 22 8 12 1012.1 1011.9 0.0
15/01:30pm 28.9 29.4 20.9 62 5.3 E 19 24 10 13 1012.6 1012.4 0.0
15/01:00pm 28.8 29.9 21.3 64 5.0 E 17 24 9 13 1013.1 1012.9 0.0
15/12:30pm 29.4 30.6 21.4 62 5.4 E 17 26 9 14 1013.3 1013.1 0.0
15/12:00pm 28.4 28.6 20.2 61 5.4 E 19 28 10 15 1013.9 1013.7 0.0
15/11:30am 28.6 28.7 20.3 60 5.5 E 20 26 11 14 1014.2 1014.0 0.0
15/11:00am 27.9 28.6 20.5 64 4.9 E 17 24 9 13 1014.5 1014.3 0.0
15/10:30am 27.8 28.2 20.6 65 4.7 E 19 24 10 13 1014.7 1014.5 0.0
15/10:00am 27.7 28.7 21.0 67 4.4 E 17 24 9 13 1014.6 1014.4 0.0
15/09:30am 27.3 28.1 21.3 69 4.0 E 19 24 10 13 1014.4 1014.2 0.0
15/09:00am 27.0 28.5 21.3 71 3.8 E 15 22 8 12 1014.3 1014.1 0.0
15/08:30am 26.3 27.7 21.1 73 3.4 E 15 20 8 11 1014.1 1013.9 0.0
15/08:00am 26.2 27.8 21.4 75 3.2 E 15 22 8 12 1013.8 1013.6 0.0
15/07:30am 25.5 26.7 21.4 78 2.7 E 17 26 9 14 1013.4 1013.2 0.0
15/07:00am 25.1 26.9 21.8 82 2.2 E 15 22 8 12 1012.9 1012.7 0.0
15/06:30am 25.0 26.7 21.7 82 2.2 E 15 20 8 11 1012.5 1012.3 0.0
15/06:00am 25.1 26.3 21.4 80 2.4 E 17 24 9 13 1012.2 1012.0 0.0
15/05:30am 25.1 26.3 21.4 80 2.5 E 17 24 9 13 1011.8 1011.6 0.0
15/05:00am 25.0 26.8 21.9 83 2.1 E 15 24 8 13 1011.6 1011.4 0.0
15/04:30am 25.0 26.8 21.9 83 2.1 E 15 22 8 12 1011.4 1011.2 0.0
15/04:00am 25.1 27.5 22.2 84 1.9 ENE 13 24 7 13 1011.4 1011.2 0.0
15/03:30am 25.2 27.2 22.3 84 1.9 E 15 24 8 13 1011.4 1011.2 0.0
15/03:00am 25.3 27.3 22.2 83 2.1 E 15 22 8 12 1011.5 1011.3 0.0
15/02:30am 25.4 27.8 22.3 83 2.1 E 13 20 7 11 1011.7 1011.5 0.0
15/02:00am 25.4 27.3 22.1 82 2.2 E 15 22 8 12 1012.0 1011.8 0.0
15/01:30am 25.4 27.3 22.1 82 2.2 E 15 22 8 12 1012.2 1012.0 0.0
15/01:00am 25.4 27.2 21.9 81 2.3 E 15 22 8 12 1012.4 1012.2 0.0
15/12:30am 25.3 27.9 22.0 82 2.2 E 11 20 6 11 1012.5 1012.3 0.0
15/12:00am 25.4 27.2 21.9 81 2.3 E 15 22 8 12 1012.7 1012.5 0.0
 
Date/Time
CST
Temp
°C
App
Temp
°C
Dew
Point
Rel
Hum
%
Delta-T
°C
Wind Press
QNH
hPa
Press
MSL
hPa
Rain
since 9 am
mm
Dir
 
Spd
km/h
Gust
km/h
Spd
kts
Gust
kts
14/11:30pm 25.5 27.4 22.0 81 2.3 ENE 15 24 8 13 1013.0 1012.8 0.0
14/11:00pm 25.5 27.0 22.0 81 2.3 E 17 26 9 14 1012.8 1012.6 0.0
14/10:30pm 25.4 27.6 21.9 81 2.3 ENE 13 26 7 14 1012.7 1012.5 0.0
14/10:00pm 25.5 27.9 21.6 79 2.6 ENE 11 22 6 12 1012.6 1012.4 0.0
14/09:30pm 25.5 27.3 21.2 77 2.8 ENE 13 22 7 12 1012.5 1012.3 0.0
14/09:00pm 25.6 27.9 21.3 77 2.8 ENE 11 19 6 10 1012.3 1012.1 0.0
14/08:30pm 25.7 28.4 20.7 74 3.3 ENE 7 13 4 7 1012.2 1012.0 0.0
14/08:00pm 25.7 28.2 20.3 72 3.5 ENE 7 15 4 8 1011.7 1011.5 0.0
14/07:30pm 25.8 28.1 19.9 70 3.8 ENE 7 13 4 7 1011.4 1011.2 0.0
14/07:00pm 26.0 28.2 19.6 68 4.1 NE 7 13 4 7 1011.0 1010.8 0.0
14/06:30pm 26.3 27.8 18.9 63 4.7 NE 9 17 5 9 1010.7 1010.5 0.0
14/06:00pm 27.0 27.9 18.3 59 5.5 NE 11 19 6 10 1010.6 1010.4 0.0
14/05:30pm 27.8 28.4 17.6 53 6.4 ENE 11 20 6 11 1010.5 1010.3 0.0
14/05:00pm 28.6 29.0 18.1 53 6.7 ENE 13 24 7 13 1010.4 1010.2 0.0
14/04:30pm 28.5 28.2 17.4 51 7.0 ENE 15 26 8 14 1010.3 1010.1 0.0
14/04:00pm 28.9 28.5 17.1 49 7.4 NE 15 26 8 14 1010.3 1010.1 0.0
14/03:30pm 29.8 29.0 16.2 43 8.5 ENE 15 28 8 15 1010.4 1010.2 0.0
14/03:00pm 29.7 28.8 16.8 45 8.1 ENE 17 28 9 15 1010.6 1010.4 0.0
14/02:30pm 28.9 29.2 20.4 60 5.6 E 19 28 10 15 1010.9 1010.7 0.0
14/02:00pm 28.0 28.1 19.2 58 5.7 ENE 17 26 9 14 1011.4 1011.2 0.0
14/01:30pm 28.7 29.3 21.0 63 5.1 E 19 26 10 14 1012.0 1011.8 0.0
14/01:00pm 28.7 28.9 20.2 60 5.6 E 19 26 10 14 1012.6 1012.4 0.0
14/12:30pm 28.6 28.4 19.8 59 5.8 E 20 32 11 17 1013.1 1012.9 0.0
14/12:00pm 28.5 28.9 21.0 64 5.0 E 20 28 11 15 1013.6 1013.4 0.0
14/11:30am 27.6 27.9 20.7 66 4.6 E 20 30 11 16 1013.9 1013.7 0.0
14/11:00am 27.9 28.2 20.7 65 4.8 E 20 30 11 16 1014.3 1014.1 0.0
14/10:30am 27.8 27.9 21.1 67 4.4 ESE 22 28 12 15 1014.4 1014.2 0.0
14/10:00am 26.7 27.5 21.7 74 3.3 E 20 28 11 15 1014.5 1014.3 0.0
14/09:30am 26.6 28.2 22.2 77 3.0 ESE 17 22 9 12 1014.5 1014.3 0.0
14/09:00am 26.0 27.0 21.7 77 2.9 ESE 19 24 10 13 1014.4 1014.2 0.0
14/08:30am 25.7 26.6 21.6 78 2.7 ESE 19 22 10 12 1014.3 1014.1 0.0
14/08:00am 25.0 25.9 21.5 81 2.3 E 19 24 10 13 1014.2 1014.0 0.0
14/07:30am 24.8 26.2 21.9 84 1.9 E 17 22 9 12 1013.9 1013.7 0.0
14/07:00am 24.1 26.0 22.0 88 1.4 E 15 20 8 11 1013.5 1013.3 0.0
14/06:30am 23.9 25.7 21.8 88 1.4 E 15 22 8 12 1013.2 1013.0 0.0
14/06:00am 23.9 25.7 21.8 88 1.4 E 15 20 8 11 1013.0 1012.8 0.0
14/05:30am 24.0 25.7 21.7 87 1.5 E 15 19 8 10 1012.8 1012.6 0.0
14/05:00am 24.1 25.9 21.8 87 1.5 E 15 19 8 10 1012.5 1012.3 0.0
14/04:30am 24.1 27.0 22.5 91 1.1 ESE 11 15 6 8 1012.4 1012.2 0.0
14/04:00am 24.1 27.4 22.5 91 1.1 ESE 9 13 5 7 1012.3 1012.1 0.0
14/03:30am 24.1 27.6 22.2 89 1.3 SE 7 9 4 5 1012.3 1012.1 0.0
14/03:00am 25.1 27.5 22.2 84 1.9 E 13 19 7 10 1012.2 1012.0 0.0
14/02:30am 25.1 27.0 22.0 83 2.1 E 15 22 8 12 1012.5 1012.3 0.0
14/02:00am 25.1 26.9 21.8 82 2.2 E 15 22 8 12 1012.6 1012.4 0.0
14/01:30am 25.2 27.0 21.9 82 2.2 E 15 22 8 12 1012.9 1012.7 0.0
14/01:00am 25.2 27.5 22.1 83 2.1 E 13 20 7 11 1013.0 1012.8 0.0
14/12:30am 25.1 27.3 21.8 82 2.2 E 13 20 7 11 1013.3 1013.1 0.0
14/12:00am 25.1 27.3 21.8 82 2.2 E 13 20 7 11 1013.6 1013.4 0.0
 
Date/Time
CST
Temp
°C
App
Temp
°C
Dew
Point
Rel
Hum
%
Delta-T
°C
Wind Press
QNH
hPa
Press
MSL
hPa
Rain
since 9 am
mm
Dir
 
Spd
km/h
Gust
km/h
Spd
kts
Gust
kts
13/11:30pm 25.1 27.1 21.6 81 2.3 E 13 19 7 10 1013.7 1013.5 0.0
13/11:00pm 25.3 27.0 21.6 80 2.5 E 15 19 8 10 1013.7 1013.5 0.0
13/10:30pm 25.3 27.2 21.4 79 2.6 E 13 19 7 10 1013.7 1013.5 0.0
13/10:00pm 25.2 28.1 21.7 81 2.3 E 9 17 5 9 1013.6 1013.4 0.0
13/09:30pm 25.2 28.0 21.5 80 2.5 ENE 9 17 5 9 1013.5 1013.3 0.0
13/09:00pm 25.3 27.5 21.2 78 2.7 ENE 11 17 6 9 1013.2 1013.0 0.0
13/08:30pm 25.4 27.9 21.1 77 2.8 ENE 9 15 5 8 1013.0 1012.8 0.0
13/08:00pm 25.5 28.0 21.0 76 3.0 ENE 9 17 5 9 1012.9 1012.7 0.0
13/07:30pm 25.5 28.2 20.7 75 3.1 ENE 7 17 4 9 1012.7 1012.5 0.0
13/07:00pm 25.7 28.6 20.7 74 3.3 NE 6 9 3 5 1012.2 1012.0 0.0

Other Formats:

Comma delimited format used in spreadsheet applications
http://www.bom.gov.au/fwo/IDD60801/IDD60801.94139.axf

JavaScript Object Notation format (JSON) in row-major order
http://www.bom.gov.au/fwo/IDD60801/IDD60801.94139.json